Nearby METAR Reports

 

NZAA - Auckland Intl Ar, New Zealand
Distance from station: SW 18km
Updated: 01/04/2020 02:00
Clear
Clear
 Wind from SSE
Wind: SSE 4 km/h
Temperature: 15°C
Dew Point: 15°C
Humidity: 100%
Barometer: 1018 hPa
Clouds: Clear
Visibility: 7 km
2020/03/31 13:00 NZAA 311300Z AUTO 16002KT 7000 NCD 15/15 Q1018 BECMG 9999
NZWN - Wellington Intl, New Zealand
Distance from station: S 493km
Updated: 01/04/2020 02:00
Mostly cloudy
Mostly cloudy
 Wind from WSW
Wind: WSW 6 km/h
Temperature: 14°C
Dew Point: 14°C
Humidity: 100%
Barometer: 1020 hPa
Clouds: Mostly cloudy
Visibility: 10 km
Cloud details: Mostly cloudy 396 m
2020/03/31 13:00 NZWN 311300Z AUTO 24003KT 9999 BKN013/// 14/14 Q1020 BECMG BKN008
 
NZCH - Christchurch Int, New Zealand
Distance from station: SSW 759km
Updated: 01/04/2020 02:00
Overcast
Overcast
 Wind from N
Wind: N 9 km/h
Temperature: 13°C
Dew Point: 12°C
Humidity: 94%
Barometer: 1019 hPa
Clouds: Overcast
Visibility: 10 km
Cloud details: Overcast 274 m
2020/03/31 13:00 NZCH 311300Z AUTO 01005KT 9999 OVC009/// 13/12 Q1019 NOSIG
YSNF - Norfolk Island A, Australia
Distance from station: NW 1091km
Updated: 01/04/2020 02:00
Clear
Clear
 Wind from E
Wind: E 15 km/h
Temperature: 19°C
Dew Point: 13°C
Humidity: 68%
Barometer: 1018 hPa
Clouds: Clear
Visibility: 10 km
2020/03/31 13:00 YSNF 311300Z AUTO 10008KT 9999 // NCD 19/13 Q1018 RF00.0/000.0